Nearby METAR Reports

 

KBFI - Seattle/Boeing, Washington, USA
Distance from station: S 10mi, 16km
Updated: Thu, 22-Jun-2017 5:53am PDT
Clear
Clear
 Wind from calm
Wind: Calm
Temperature: 54°F , 12°C
Dew Point: 50°F , 10°C
Humidity: 88%
Barometer: 30.30 inHg , 1026.1 hPa
Clouds: Clear
Visibility: 10 miles , 16 km
2017/06/22 12:53 KBFI 221253Z 00000KT 10SM CLR 12/10 A3030 RMK AO2 SLP260 T01220100
KRNT - Renton, Washington, USA
Distance from station: SSE 14mi, 23km
Updated: Thu, 22-Jun-2017 6:53am PDT
Clear
Clear
 Wind from N
Wind: N 5 mph , 7 km/h
Temperature: 54°F , 12°C
Dew Point: 50°F , 10°C
Humidity: 88%
Barometer: 30.31 inHg , 1026.4 hPa
Clouds: Clear
Visibility: 10 miles , 16 km
2017/06/22 13:53 KRNT 221353Z 35004KT 10SM CLR 12/10 A3031 RMK AO2 SLP268 T01220100
 
KPAE - Everett, Washington, USA
Distance from station: N 15mi, 25km
Updated: Thu, 22-Jun-2017 6:53am PDT
Clear
Clear
 Wind from NW
Wind: NW 6 mph , 9 km/h
Temperature: 54°F , 12°C
Dew Point: 46°F , 8°C
Humidity: 77%
Barometer: 30.32 inHg , 1026.8 hPa
Clouds: Clear
Visibility: 10 miles , 16 km
2017/06/22 13:53 KPAE 221353Z 32005KT 10SM CLR 12/08 A3032 RMK AO2 SLP267 T01170083
KSEA - Seattle/Metro, Washington, USA
Distance from station: S 17mi, 27km
Updated: Thu, 22-Jun-2017 6:53am PDT
Clear
Clear
 Wind from N
Wind: N 7 mph , 11 km/h
Temperature: 55°F , 13°C
Dew Point: 48°F , 9°C
Humidity: 77%
Barometer: 30.31 inHg , 1026.4 hPa
Clouds: Clear
Visibility: 10 miles , 16 km
2017/06/22 13:53 KSEA 221353Z 35006KT 10SM CLR 13/09 A3031 RMK AO2 SLP268 T01330094
 
KPWT - Bremerton Ntnl, Washington, USA
Distance from station: SW 24mi, 39km
Updated: Thu, 22-Jun-2017 6:56am PDT
Clear
Clear
 Wind from NE
Wind: NE 6 mph , 9 km/h
Temperature: 54°F , 12°C
Dew Point: 48°F , 9°C
Humidity: 82%
Barometer: 30.32 inHg , 1026.8 hPa
Clouds: Clear
Visibility: 10 miles , 16 km
2017/06/22 13:56 KPWT 221356Z AUTO 04005KT 10SM CLR 12/09 A3032 RMK AO2 SLP284 T01220089
KTIW - Tacoma, Washington, USA
Distance from station: SSW 32mi, 52km
Updated: Thu, 22-Jun-2017 6:53am PDT
Clear
Clear
 Wind from N
Wind: N 3 mph , 6 km/h
Temperature: 55°F , 13°C
Dew Point: 46°F , 8°C
Humidity: 72%
Barometer: 30.31 inHg , 1026.4 hPa
Clouds: Clear
Visibility: 10 miles , 16 km
2017/06/22 13:53 KTIW 221353Z AUTO 35003KT 10SM CLR 13/08 A3031 RMK AO2 SLP262 T01280083
 
KAWO - Arlington Muni, Washington, USA
Distance from station: N 33mi, 54km
Updated: Tue, 06-Jun-2017 8:15am PDT
NOT Current
Clear
Clear
 Wind from N
Wind: N 3 mph , 6 km/h
Temperature: 54°F , 12°C
Dew Point: 43°F , 6°C
Humidity: 67%
Barometer: 30.02 inHg , 1016.6 hPa
Clouds: Clear
Visibility: 10 miles , 16 km
2017/06/06 15:15 KAWO 061515Z AUTO 35003KT 10SM CLR 12/06 A3002 RMK AO1
KTCM - Tacoma/Mc Chord, Washington, USA
Distance from station: S 41mi, 65km
Updated: Thu, 22-Jun-2017 6:58am PDT
Clear
Clear
 Wind from calm
Wind: Calm
Temperature: 55°F , 13°C
Dew Point: 50°F , 10°C
Humidity: 82%
Barometer: 30.31 inHg , 1026.4 hPa
Clouds: Clear
Visibility: 10 miles , 16 km
2017/06/22 13:58 KTCM 221358Z AUTO 00000KT 10SM CLR 13/10 A3031 RMK AO2 SLP268 T01310097 $
 
KPLU - Puyallup/Thun, Washington, USA
Distance from station: S 41mi, 66km
Updated: Thu, 22-Jun-2017 6:55am PDT
Clear
Clear
 Wind from calm
Wind: Calm
Temperature: 50°F , 10°C
Dew Point: 50°F , 10°C
Humidity: 100%
Barometer: 30.30 inHg , 1026.1 hPa
Clouds: Clear
Visibility: 10 miles , 16 km
2017/06/22 13:55 KPLU 221355Z AUTO 00000KT 10SM CLR 10/10 A3030 RMK AO2
KGRF - Fort Lewis/Gray, Washington, USA
Distance from station: SSW 45mi, 72km
Updated: Thu, 22-Jun-2017 6:58am PDT
Clear
Clear
 Wind from calm
Wind: Calm
Temperature: 52°F , 11°C
Dew Point: 52°F , 11°C
Humidity: 100%
Barometer: 30.30 inHg , 1026.1 hPa
Clouds: Clear
Visibility: 10 miles , 16 km
2017/06/22 13:58 KGRF 221358Z AUTO 00000KT 10SM CLR 11/11 A3030 RMK AO2 SLP264 T01130108 $
 
KNUW - Whidbey Is. Nas, Washington, USA
Distance from station: NNW 48mi, 77km
Updated: Thu, 22-Jun-2017 6:56am PDT
Few Clouds
Few Clouds
 Wind from ESE
Wind: ESE 3 mph , 6 km/h
Temperature: 52°F , 11°C
Dew Point: 48°F , 9°C
Humidity: 88%
Barometer: 30.36 inHg , 1028.1 hPa
Clouds: Few Clouds
Visibility: 10 miles , 16 km
Cloud details: Few Clouds 2000 ft
Few Clouds 6000 ft
2017/06/22 13:56 KNUW 221356Z 12003KT 10SM FEW020 FEW060 11/09 A3036 RMK AO2 SLP280 T01110089 $
KSHN - Shelton, Washington, USA
Distance from station: SW 50mi, 80km
Updated: Thu, 22-Jun-2017 6:53am PDT
Clear
Clear
 Wind from calm
Wind: Calm
Temperature: 52°F , 11°C
Dew Point: 48°F , 9°C
Humidity: 88%
Barometer: 30.30 inHg , 1026.1 hPa
Clouds: Clear
Visibility: 10 miles , 16 km
2017/06/22 13:53 KSHN 221353Z AUTO 00000KT 10SM CLR 11/09 A3030 RMK AO2 SLP259 T01060089